Time;durP1;ratioP1;P1;durP2;ratioP2;P2;SDS_P1;SDS_P2;PMS_P1;PMS_P2;Temp;Humidity;BMP_temperature;BMP_pressure;BME280_temperature;BME280_humidity;BME280_pressure;Samples;Min_cycle;Max_cycle;Signal;HPM_P1;HPM_P2
2023/12/16 00:01:01;;;;;;;;;;;;;;;;;;;;;
2023/12/16 00:03:28;;;;;;;0.10;0.10;;;;;;;;;;5050053;28;20266;-82
2023/12/16 00:06:23;;;;;;;0.50;0.47;;;;;;;;;;5049931;28;20033;-79
2023/12/16 00:09:13;;;;;;;0.20;0.20;;;;;;;;;;5045862;28;20384;-79
2023/12/16 00:11:48;;;;;;;0.20;0.20;;;;;;;;;;5028315;28;20065;-78
2023/12/16 00:14:23;;;;;;;0.30;0.30;;;;;;;;;;5051107;28;20484;-80
2023/12/16 00:17:02;;;;;;;;;;;;;;;;;;;;;
2023/12/16 00:19:32;;;;;;;0.30;0.30;;;;;;;;;;5049224;28;20040;-79
2023/12/16 00:22:11;;;;;;;0.20;0.20;;;;;;;;;;5047920;28;20032;-78
2023/12/16 00:24:42;;;;;;;0.10;0.10;;;;;;;;;;5048572;28;20460;-78
2023/12/16 00:30:02;;;;;;;0.30;0.30;;;;;;;;;;5051654;28;20036;-79
2023/12/16 00:32:54;;;;;;;0.17;0.17;;;;;;;;;;5050741;28;20112;-78
2023/12/16 00:38:19;;;;;;;0.32;0.32;;;;;;;;;;5050454;28;20052;-79
2023/12/16 00:40:50;;;;;;;0.25;0.25;;;;;;;;;;5054979;28;20044;-78
2023/12/16 00:43:19;;;;;;;0.10;0.10;;;;;;;;;;5054107;28;20119;-77
2023/12/16 00:45:45;;;;;;;0.20;0.20;;;;;;;;;;5052024;28;20489;-79
2023/12/16 00:48:27;;;;;;;;;;;;;;;;;;;;;
2023/12/16 00:51:07;;;;;;;0.50;0.50;;;;;;;;;;5052695;28;20025;-78
2023/12/16 00:53:56;;;;;;;0.10;0.10;;;;;;;;;;5048462;28;20055;-79
2023/12/16 00:56:26;;;;;;;0.20;0.20;;;;;;;;;;5055529;28;20036;-79
2023/12/16 00:59:04;;;;;;;0.32;0.32;;;;;;;;;;5053968;28;20040;-78
2023/12/16 01:01:33;;;;;;;0.25;0.25;;;;;;;;;;5055219;28;20060;-80
2023/12/16 01:04:28;;;;;;;0.10;0.10;;;;;;;;;;5056302;28;20041;-80
2023/12/16 01:07:17;;;;;;;0.17;0.17;;;;;;;;;;5066952;28;20048;-79
2023/12/16 01:10:03;;;;;;;0.30;0.30;;;;;;;;;;5050965;28;20059;-79
2023/12/16 01:12:40;;;;;;;0.60;0.60;;;;;;;;;;5055251;28;20033;-80
2023/12/16 01:15:15;;;;;;;0.45;0.40;;;;;;;;;;5059154;28;20040;-79
2023/12/16 01:18:34;;;;;;;0.40;0.40;;;;;;;;;;5054536;28;20028;-79
2023/12/16 01:21:13;;;;;;;0.10;0.10;;;;;;;;;;5022710;28;20045;-78
2023/12/16 01:24:00;;;;;;;0.10;0.10;;;;;;;;;;5034325;28;20047;-79
2023/12/16 01:26:26;;;;;;;0.22;0.22;;;;;;;;;;5053056;28;20549;-80
2023/12/16 01:28:51;;;;;;;0.30;0.30;;;;;;;;;;5052381;28;20115;-77
2023/12/16 01:31:20;;;;;;;0.28;0.28;;;;;;;;;;5055726;28;20519;-79
2023/12/16 01:33:48;;;;;;;0.13;0.13;;;;;;;;;;5053734;28;20046;-81
2023/12/16 01:36:23;;;;;;;0.20;0.20;;;;;;;;;;5050734;28;20855;-78
2023/12/16 01:39:02;;;;;;;1.20;0.75;;;;;;;;;;5053544;28;20496;-82
2023/12/16 01:41:31;;;;;;;0.17;0.17;;;;;;;;;;5054667;28;20484;-79
2023/12/16 01:44:06;;;;;;;0.25;0.25;;;;;;;;;;5052952;28;20119;-79
2023/12/16 01:46:36;;;;;;;0.10;0.10;;;;;;;;;;5054505;28;20090;-80
2023/12/16 01:49:05;;;;;;;0.20;0.20;;;;;;;;;;5052598;28;20105;-79
2023/12/16 01:51:52;;;;;;;0.20;0.20;;;;;;;;;;5055103;28;20090;-79
2023/12/16 01:54:35;;;;;;;0.20;0.20;;;;;;;;;;5055991;28;20749;-81
2023/12/16 01:57:13;;;;;;;0.20;0.20;;;;;;;;;;5053177;28;20577;-81
2023/12/16 02:00:15;;;;;;;0.20;0.20;;;;;;;;;;5069296;28;20149;-81
2023/12/16 02:02:48;;;;;;;0.10;0.10;;;;;;;;;;5054876;28;20071;-81
2023/12/16 02:05:17;;;;;;;0.15;0.15;;;;;;;;;;5056046;28;20029;-80
2023/12/16 02:07:43;;;;;;;0.20;0.20;;;;;;;;;;5058604;28;20586;-80
2023/12/16 02:10:09;;;;;;;0.17;0.17;;;;;;;;;;5056723;28;20111;-80
2023/12/16 02:12:35;;;;;;;0.43;0.32;;;;;;;;;;5057998;28;20486;-79
2023/12/16 02:15:01;;;;;;;0.10;0.10;;;;;;;;;;5062189;28;20047;-79
2023/12/16 02:17:26;;;;;;;0.20;0.20;;;;;;;;;;5056575;28;20591;-82
2023/12/16 02:19:55;;;;;;;0.28;0.28;;;;;;;;;;5058502;28;20056;-81
2023/12/16 02:22:22;;;;;;;0.20;0.20;;;;;;;;;;5058802;28;20579;-80
2023/12/16 02:24:49;;;;;;;0.20;0.20;;;;;;;;;;5059462;28;20069;-82
2023/12/16 02:27:14;;;;;;;0.22;0.22;;;;;;;;;;5054201;28;20047;-81
2023/12/16 02:29:40;;;;;;;0.38;0.38;;;;;;;;;;5058579;28;20040;-79
2023/12/16 02:32:06;;;;;;;0.68;0.68;;;;;;;;;;5058203;28;20504;-80
2023/12/16 02:34:32;;;;;;;0.30;0.30;;;;;;;;;;5058584;28;20036;-79
2023/12/16 02:36:58;;;;;;;0.40;0.40;;;;;;;;;;5060722;28;20033;-80
2023/12/16 02:39:23;;;;;;;0.20;0.20;;;;;;;;;;5060632;28;20025;-79
2023/12/16 02:41:49;;;;;;;0.17;0.17;;;;;;;;;;5059642;28;20526;-78
2023/12/16 02:44:14;;;;;;;0.10;0.10;;;;;;;;;;5060879;28;20024;-80
2023/12/16 02:46:43;;;;;;;0.20;0.20;;;;;;;;;;5057331;28;20075;-79
2023/12/16 02:49:08;;;;;;;0.20;0.20;;;;;;;;;;5059010;28;20035;-81
2023/12/16 02:51:33;;;;;;;0.10;0.10;;;;;;;;;;5057889;28;20024;-80
2023/12/16 02:53:59;;;;;;;0.20;0.20;;;;;;;;;;5056368;28;20029;-82
2023/12/16 02:56:24;;;;;;;0.28;0.28;;;;;;;;;;5060906;28;20048;-82
2023/12/16 02:58:50;;;;;;;0.20;0.20;;;;;;;;;;5058773;28;20033;-79
2023/12/16 03:01:16;;;;;;;0.20;0.20;;;;;;;;;;5059473;28;20027;-81
2023/12/16 03:03:41;;;;;;;0.30;0.30;;;;;;;;;;5057083;28;20061;-81
2023/12/16 03:06:08;;;;;;;0.30;0.30;;;;;;;;;;5058050;28;20100;-81
2023/12/16 03:08:34;;;;;;;0.10;0.10;;;;;;;;;;5056830;28;20040;-80
2023/12/16 03:11:01;;;;;;;0.30;0.30;;;;;;;;;;5055762;28;20044;-81
2023/12/16 03:13:27;;;;;;;0.10;0.10;;;;;;;;;;5055723;28;20034;-84
2023/12/16 03:15:52;;;;;;;0.20;0.20;;;;;;;;;;5056416;28;20028;-81
2023/12/16 03:18:18;;;;;;;0.20;0.20;;;;;;;;;;5057468;28;20492;-83
2023/12/16 03:20:43;;;;;;;0.40;0.40;;;;;;;;;;5057699;28;20059;-83
2023/12/16 03:23:11;;;;;;;1.25;0.73;;;;;;;;;;5057011;28;20033;-81
2023/12/16 03:25:43;;;;;;;0.22;0.22;;;;;;;;;;5059102;28;20354;-81
2023/12/16 03:28:09;;;;;;;0.90;0.63;;;;;;;;;;5056176;28;20021;-81
2023/12/16 03:30:34;;;;;;;0.57;0.57;;;;;;;;;;5057059;28;20389;-82
2023/12/16 03:33:00;;;;;;;0.30;0.30;;;;;;;;;;5058036;28;20028;-83
2023/12/16 03:35:25;;;;;;;0.38;0.38;;;;;;;;;;5054616;28;20029;-84
2023/12/16 03:37:51;;;;;;;1.27;0.50;;;;;;;;;;5058042;28;20151;-83
2023/12/16 03:40:16;;;;;;;0.75;0.75;;;;;;;;;;5054379;28;20029;-83
2023/12/16 03:42:41;;;;;;;2.63;1.38;;;;;;;;;;5053833;28;20381;-83
2023/12/16 03:45:10;;;;;;;2.13;1.48;;;;;;;;;;5055152;28;20495;-82
2023/12/16 03:47:35;;;;;;;2.47;1.52;;;;;;;;;;5086166;28;20505;-83
2023/12/16 03:50:01;;;;;;;0.90;0.88;;;;;;;;;;5057519;28;20056;-84
2023/12/16 03:52:26;;;;;;;0.82;0.80;;;;;;;;;;5057875;28;20086;-83
2023/12/16 03:54:52;;;;;;;1.27;0.98;;;;;;;;;;5061004;28;20017;-83
2023/12/16 03:57:17;;;;;;;2.80;1.42;;;;;;;;;;5055627;28;20045;-82
2023/12/16 03:59:43;;;;;;;0.30;0.30;;;;;;;;;;5054926;28;20028;-85
2023/12/16 04:02:08;;;;;;;0.73;0.70;;;;;;;;;;5055732;28;20029;-86
2023/12/16 04:04:34;;;;;;;0.10;0.10;;;;;;;;;;5055836;28;20047;-82
2023/12/16 04:07:00;;;;;;;1.58;1.48;;;;;;;;;;5057444;28;20025;-84
2023/12/16 04:09:27;;;;;;;0.65;0.40;;;;;;;;;;5057136;28;20058;-84
2023/12/16 04:11:56;;;;;;;0.30;0.30;;;;;;;;;;5055619;28;20056;-86
2023/12/16 04:14:21;;;;;;;0.57;0.52;;;;;;;;;;5057498;28;20465;-85
2023/12/16 04:16:50;;;;;;;0.30;0.30;;;;;;;;;;5054292;28;20033;-86
2023/12/16 04:19:15;;;;;;;0.50;0.50;;;;;;;;;;5056111;28;20047;-84
2023/12/16 04:21:41;;;;;;;0.50;0.50;;;;;;;;;;5058707;28;20345;-85
2023/12/16 04:24:09;;;;;;;0.65;0.65;;;;;;;;;;5052796;28;20507;-83
2023/12/16 04:26:35;;;;;;;0.88;0.85;;;;;;;;;;5056008;28;20028;-84
2023/12/16 04:29:01;;;;;;;0.70;0.70;;;;;;;;;;5057941;28;20074;-84
2023/12/16 04:31:28;;;;;;;0.28;0.28;;;;;;;;;;5055212;28;20033;-84
2023/12/16 04:33:55;;;;;;;0.30;0.30;;;;;;;;;;5054246;28;20429;-83
2023/12/16 04:36:20;;;;;;;1.98;0.68;;;;;;;;;;5055891;28;20039;-86
2023/12/16 04:38:46;;;;;;;1.67;1.48;;;;;;;;;;5054938;28;20032;-85
2023/12/16 04:41:13;;;;;;;1.98;1.20;;;;;;;;;;5054248;28;20542;-84
2023/12/16 04:43:39;;;;;;;0.30;0.30;;;;;;;;;;5053591;28;20025;-84
2023/12/16 04:46:08;;;;;;;0.57;0.40;;;;;;;;;;5053898;28;20021;-83
2023/12/16 04:48:34;;;;;;;0.20;0.20;;;;;;;;;;5049813;28;20119;-82
2023/12/16 04:51:09;;;;;;;0.65;0.65;;;;;;;;;;5052973;28;20111;-85
2023/12/16 04:53:35;;;;;;;1.00;0.55;;;;;;;;;;5052514;28;20032;-84
2023/12/16 04:56:00;;;;;;;0.50;0.50;;;;;;;;;;5054287;28;20021;-83
2023/12/16 04:58:26;;;;;;;0.55;0.55;;;;;;;;;;5050603;28;20053;-82
2023/12/16 05:00:52;;;;;;;0.20;0.20;;;;;;;;;;5053418;28;20044;-82
2023/12/16 05:03:18;;;;;;;0.50;0.50;;;;;;;;;;5053046;28;20025;-82
2023/12/16 05:05:43;;;;;;;0.28;0.28;;;;;;;;;;5049106;28;20457;-84
2023/12/16 05:08:11;;;;;;;0.30;0.30;;;;;;;;;;5051678;28;20037;-84
2023/12/16 05:10:45;;;;;;;0.30;0.30;;;;;;;;;;5050977;28;20104;-84
2023/12/16 05:13:11;;;;;;;0.25;0.25;;;;;;;;;;5054958;28;20032;-84
2023/12/16 05:15:40;;;;;;;0.10;0.10;;;;;;;;;;5050268;28;20130;-83
2023/12/16 05:18:08;;;;;;;0.20;0.20;;;;;;;;;;5049815;28;20070;-81
2023/12/16 05:20:35;;;;;;;0.20;0.20;;;;;;;;;;5050028;28;20420;-80
2023/12/16 05:23:02;;;;;;;0.10;0.10;;;;;;;;;;5046868;28;20108;-81
2023/12/16 05:25:30;;;;;;;0.10;0.10;;;;;;;;;;5049843;28;20358;-83
2023/12/16 05:27:56;;;;;;;0.15;0.15;;;;;;;;;;5049603;28;20104;-83
2023/12/16 05:30:22;;;;;;;0.10;0.10;;;;;;;;;;5050871;28;20466;-82
2023/12/16 05:32:48;;;;;;;0.45;0.45;;;;;;;;;;5047903;28;20037;-82
2023/12/16 05:35:14;;;;;;;0.20;0.20;;;;;;;;;;5047640;28;20021;-82
2023/12/16 05:37:40;;;;;;;0.20;0.20;;;;;;;;;;5047871;28;20401;-80
2023/12/16 05:40:06;;;;;;;0.20;0.20;;;;;;;;;;5050257;28;20028;-81
2023/12/16 05:42:31;;;;;;;0.10;0.10;;;;;;;;;;5049966;28;20043;-83
2023/12/16 05:44:57;;;;;;;0.30;0.30;;;;;;;;;;5047029;28;20525;-81
2023/12/16 05:47:23;;;;;;;0.15;0.15;;;;;;;;;;5049124;28;20108;-84
2023/12/16 05:49:48;;;;;;;0.20;0.20;;;;;;;;;;5049311;28;20150;-84
2023/12/16 05:52:14;;;;;;;0.20;0.20;;;;;;;;;;5047360;28;20040;-81
2023/12/16 05:54:40;;;;;;;0.10;0.10;;;;;;;;;;5048014;28;20435;-81
2023/12/16 05:57:05;;;;;;;0.30;0.30;;;;;;;;;;5048273;28;20075;-80
2023/12/16 05:59:34;;;;;;;0.20;0.20;;;;;;;;;;5051057;28;20393;-83
2023/12/16 06:02:00;;;;;;;0.10;0.10;;;;;;;;;;5048176;28;20037;-83
2023/12/16 06:04:25;;;;;;;0.20;0.20;;;;;;;;;;5049033;28;20489;-83
2023/12/16 06:06:51;;;;;;;0.20;0.20;;;;;;;;;;5047796;28;20544;-84
2023/12/16 06:09:17;;;;;;;0.15;0.15;;;;;;;;;;5050472;28;20035;-82
2023/12/16 06:11:55;;;;;;;0.13;0.13;;;;;;;;;;5048766;28;20032;-81
2023/12/16 06:14:25;;;;;;;0.20;0.20;;;;;;;;;;5048731;28;20028;-81
2023/12/16 06:16:53;;;;;;;0.93;0.90;;;;;;;;;;5047909;28;20433;-83
2023/12/16 06:19:18;;;;;;;0.10;0.10;;;;;;;;;;5050958;28;20035;-82
2023/12/16 06:21:44;;;;;;;0.20;0.20;;;;;;;;;;5045252;28;20056;-81
2023/12/16 06:24:10;;;;;;;0.10;0.10;;;;;;;;;;5046990;28;20028;-81
2023/12/16 06:26:36;;;;;;;0.22;0.22;;;;;;;;;;5048000;28;20028;-80
2023/12/16 06:29:02;;;;;;;0.25;0.25;;;;;;;;;;5050534;28;20465;-80
2023/12/16 06:31:27;;;;;;;0.40;0.40;;;;;;;;;;5048454;28;20024;-80
2023/12/16 06:33:52;;;;;;;0.30;0.30;;;;;;;;;;5046990;28;20024;-80
2023/12/16 06:36:18;;;;;;;0.10;0.10;;;;;;;;;;5049045;28;20705;-80
2023/12/16 06:38:43;;;;;;;0.20;0.20;;;;;;;;;;5048843;28;20057;-81
2023/12/16 06:41:09;;;;;;;0.20;0.20;;;;;;;;;;5049569;28;20031;-82
2023/12/16 06:43:34;;;;;;;0.10;0.10;;;;;;;;;;5051893;28;20044;-81
2023/12/16 06:46:00;;;;;;;0.20;0.20;;;;;;;;;;5052063;28;20461;-83
2023/12/16 06:48:25;;;;;;;0.20;0.20;;;;;;;;;;5052694;28;20036;-81
2023/12/16 06:50:50;;;;;;;6.22;0.55;;;;;;;;;;5052643;28;20032;-82
2023/12/16 06:53:17;;;;;;;0.20;0.20;;;;;;;;;;5050574;28;20420;-81
2023/12/16 06:55:42;;;;;;;0.20;0.20;;;;;;;;;;5052765;28;20045;-82
2023/12/16 06:58:07;;;;;;;0.17;0.17;;;;;;;;;;5050400;28;20155;-82
2023/12/16 07:00:33;;;;;;;0.10;0.10;;;;;;;;;;5054797;28;20033;-82
2023/12/16 07:02:59;;;;;;;0.50;0.50;;;;;;;;;;5048018;28;20029;-81
2023/12/16 07:05:25;;;;;;;0.20;0.20;;;;;;;;;;5050287;28;20021;-83
2023/12/16 07:07:50;;;;;;;0.32;0.32;;;;;;;;;;5052546;28;20208;-79
2023/12/16 07:10:16;;;;;;;0.30;0.30;;;;;;;;;;5050632;28;20033;-78
2023/12/16 07:12:41;;;;;;;0.50;0.50;;;;;;;;;;5049925;28;20029;-80
2023/12/16 07:15:07;;;;;;;0.20;0.20;;;;;;;;;;5051463;28;20037;-80
2023/12/16 07:17:33;;;;;;;0.20;0.20;;;;;;;;;;5048588;28;20545;-80
2023/12/16 07:19:59;;;;;;;0.20;0.20;;;;;;;;;;5053475;28;20017;-79
2023/12/16 07:22:24;;;;;;;0.50;0.50;;;;;;;;;;5050225;28;20017;-80
2023/12/16 07:24:50;;;;;;;0.20;0.20;;;;;;;;;;5049124;28;20036;-81
2023/12/16 07:27:15;;;;;;;0.20;0.20;;;;;;;;;;5050435;28;20031;-80
2023/12/16 07:29:42;;;;;;;0.25;0.25;;;;;;;;;;5049333;28;20056;-78
2023/12/16 07:32:08;;;;;;;0.30;0.30;;;;;;;;;;5046982;28;20417;-82
2023/12/16 07:34:33;;;;;;;0.22;0.22;;;;;;;;;;5046129;28;20021;-81
2023/12/16 07:36:59;;;;;;;0.20;0.20;;;;;;;;;;5045513;28;20032;-81
2023/12/16 07:39:24;;;;;;;0.25;0.25;;;;;;;;;;5044360;28;20027;-81
2023/12/16 07:41:49;;;;;;;0.20;0.20;;;;;;;;;;5048033;28;20060;-80
2023/12/16 07:44:15;;;;;;;0.40;0.40;;;;;;;;;;5050005;28;20036;-81
2023/12/16 07:46:40;;;;;;;0.10;0.10;;;;;;;;;;5047259;28;20068;-81
2023/12/16 07:49:06;;;;;;;0.20;0.20;;;;;;;;;;5048261;28;20033;-81
2023/12/16 07:51:32;;;;;;;0.30;0.30;;;;;;;;;;5046381;28;20036;-80
2023/12/16 07:53:57;;;;;;;0.20;0.20;;;;;;;;;;5043417;28;20124;-81
2023/12/16 07:56:24;;;;;;;0.20;0.20;;;;;;;;;;5043456;28;20076;-82
2023/12/16 07:58:50;;;;;;;0.20;0.20;;;;;;;;;;5045026;28;20098;-82
2023/12/16 08:01:16;;;;;;;0.17;0.17;;;;;;;;;;5047079;28;20024;-81
2023/12/16 08:03:43;;;;;;;0.35;0.35;;;;;;;;;;5047880;28;21769;-81
2023/12/16 08:06:09;;;;;;;0.90;0.40;;;;;;;;;;5046726;28;20025;-80
2023/12/16 08:08:38;;;;;;;0.20;0.20;;;;;;;;;;5047763;28;20035;-82
2023/12/16 08:11:04;;;;;;;0.40;0.40;;;;;;;;;;5046441;28;20061;-82
2023/12/16 08:13:30;;;;;;;0.20;0.20;;;;;;;;;;5048713;28;20512;-82
2023/12/16 08:15:55;;;;;;;2.55;0.30;;;;;;;;;;5048481;28;20060;-83
2023/12/16 08:18:21;;;;;;;0.30;0.30;;;;;;;;;;5052400;28;20047;-82
2023/12/16 08:20:46;;;;;;;0.22;0.22;;;;;;;;;;5051687;28;21424;-82
2023/12/16 08:23:11;;;;;;;0.32;0.32;;;;;;;;;;5051226;28;20029;-80
2023/12/16 08:25:37;;;;;;;0.30;0.30;;;;;;;;;;5048780;28;20028;-80
2023/12/16 08:28:03;;;;;;;0.28;0.28;;;;;;;;;;5051358;28;20108;-80
2023/12/16 08:30:28;;;;;;;0.20;0.20;;;;;;;;;;5049830;28;20027;-82
2023/12/16 08:32:54;;;;;;;0.30;0.30;;;;;;;;;;5049942;28;20032;-81
2023/12/16 08:35:19;;;;;;;0.28;0.28;;;;;;;;;;5050366;28;20028;-79
2023/12/16 08:37:45;;;;;;;0.32;0.32;;;;;;;;;;5048720;28;20044;-80
2023/12/16 08:40:10;;;;;;;1.20;0.75;;;;;;;;;;5047767;28;20036;-84
2023/12/16 08:42:37;;;;;;;0.20;0.20;;;;;;;;;;5051279;28;20025;-82
2023/12/16 08:45:02;;;;;;;1.08;0.60;;;;;;;;;;5049999;28;20044;-80
2023/12/16 08:47:28;;;;;;;0.10;0.10;;;;;;;;;;5048580;28;20063;-83
2023/12/16 08:49:53;;;;;;;0.32;0.32;;;;;;;;;;5048921;28;20033;-82
2023/12/16 08:52:23;;;;;;;0.73;0.73;;;;;;;;;;5047922;28;20041;-80
2023/12/16 08:54:48;;;;;;;0.40;0.40;;;;;;;;;;5048613;28;20041;-82
2023/12/16 08:57:14;;;;;;;0.40;0.40;;;;;;;;;;5049689;28;20048;-82
2023/12/16 08:59:39;;;;;;;0.20;0.20;;;;;;;;;;5050971;28;20044;-80
2023/12/16 09:02:05;;;;;;;0.20;0.20;;;;;;;;;;5050333;28;20028;-81
2023/12/16 09:04:31;;;;;;;0.20;0.20;;;;;;;;;;5050442;28;20049;-80
2023/12/16 09:06:56;;;;;;;3.10;0.40;;;;;;;;;;5050436;28;20753;-80
2023/12/16 09:09:22;;;;;;;2.33;0.32;;;;;;;;;;5047785;28;20029;-81
2023/12/16 09:11:48;;;;;;;0.20;0.20;;;;;;;;;;5048192;28;20453;-80
2023/12/16 09:14:13;;;;;;;0.20;0.20;;;;;;;;;;5049950;28;20120;-81
2023/12/16 09:16:39;;;;;;;0.20;0.20;;;;;;;;;;5047723;28;20497;-82
2023/12/16 09:19:07;;;;;;;0.20;0.20;;;;;;;;;;5050042;28;20021;-82
2023/12/16 09:21:32;;;;;;;0.30;0.30;;;;;;;;;;5050323;28;20095;-81
2023/12/16 09:23:58;;;;;;;0.50;0.50;;;;;;;;;;5047993;28;20531;-81
2023/12/16 09:26:23;;;;;;;0.30;0.30;;;;;;;;;;5049804;28;20511;-79
2023/12/16 09:28:49;;;;;;;0.30;0.30;;;;;;;;;;5049692;28;20033;-79
2023/12/16 09:31:16;;;;;;;0.30;0.30;;;;;;;;;;5049627;28;20461;-83
2023/12/16 09:33:42;;;;;;;0.20;0.20;;;;;;;;;;5048106;28;20029;-81
2023/12/16 09:36:16;;;;;;;0.43;0.43;;;;;;;;;;5047372;28;20361;-81
2023/12/16 09:38:44;;;;;;;1.95;0.47;;;;;;;;;;5049362;28;20063;-81
2023/12/16 09:41:28;;;;;;;0.30;0.30;;;;;;;;;;5049724;28;20146;-82
2023/12/16 09:43:56;;;;;;;0.20;0.20;;;;;;;;;;5048564;28;20112;-80
2023/12/16 09:46:27;;;;;;;0.28;0.28;;;;;;;;;;5050040;28;20461;-80
2023/12/16 09:48:54;;;;;;;0.20;0.20;;;;;;;;;;5048900;28;20044;-81
2023/12/16 09:51:23;;;;;;;0.20;0.20;;;;;;;;;;5049426;28;20052;-82
2023/12/16 09:53:50;;;;;;;0.43;0.43;;;;;;;;;;5047898;28;20029;-79
2023/12/16 09:56:17;;;;;;;0.20;0.20;;;;;;;;;;5047227;28;20120;-80
2023/12/16 09:58:45;;;;;;;0.40;0.40;;;;;;;;;;5048152;28;20099;-81
2023/12/16 10:01:11;;;;;;;1.30;1.08;;;;;;;;;;5047561;28;20017;-82
2023/12/16 10:03:38;;;;;;;0.40;0.30;;;;;;;;;;5049336;28;20112;-82
2023/12/16 10:06:06;;;;;;;0.20;0.20;;;;;;;;;;5049393;28;20033;-82
2023/12/16 10:08:33;;;;;;;0.90;0.77;;;;;;;;;;5049317;28;20024;-81
2023/12/16 10:10:59;;;;;;;0.98;0.40;;;;;;;;;;5047246;28;20032;-79
2023/12/16 10:13:26;;;;;;;0.20;0.20;;;;;;;;;;5048660;28;20473;-81
2023/12/16 10:15:54;;;;;;;0.30;0.30;;;;;;;;;;5047598;28;20032;-80
2023/12/16 10:18:19;;;;;;;0.95;0.75;;;;;;;;;;5050073;28;20027;-79
2023/12/16 10:20:45;;;;;;;0.28;0.28;;;;;;;;;;5051050;28;20107;-81
2023/12/16 10:23:12;;;;;;;0.30;0.30;;;;;;;;;;5049064;28;20081;-80
2023/12/16 10:25:39;;;;;;;0.17;0.17;;;;;;;;;;5051231;28;20048;-81
2023/12/16 10:28:04;;;;;;;0.35;0.35;;;;;;;;;;5052562;28;20108;-82
2023/12/16 10:30:30;;;;;;;0.40;0.40;;;;;;;;;;5049287;28;20094;-82
2023/12/16 10:32:56;;;;;;;0.35;0.35;;;;;;;;;;5050719;28;20025;-80
2023/12/16 10:35:23;;;;;;;0.45;0.35;;;;;;;;;;5050245;28;20036;-79
2023/12/16 10:37:50;;;;;;;0.20;0.20;;;;;;;;;;5047290;28;20032;-80
2023/12/16 10:40:16;;;;;;;0.20;0.20;;;;;;;;;;5050295;28;20024;-81
2023/12/16 10:42:42;;;;;;;0.20;0.20;;;;;;;;;;5049946;28;20473;-82
2023/12/16 10:45:10;;;;;;;0.38;0.38;;;;;;;;;;5049169;28;20018;-79
2023/12/16 10:47:37;;;;;;;0.22;0.22;;;;;;;;;;5050079;28;20029;-80
2023/12/16 10:50:03;;;;;;;0.30;0.30;;;;;;;;;;5050479;28;20576;-79
2023/12/16 10:52:34;;;;;;;0.30;0.30;;;;;;;;;;5051196;28;20037;-82
2023/12/16 10:55:03;;;;;;;0.30;0.30;;;;;;;;;;5051570;28;20122;-79
2023/12/16 10:57:48;;;;;;;0.20;0.20;;;;;;;;;;5048802;28;20083;-81
2023/12/16 11:00:23;;;;;;;0.20;0.20;;;;;;;;;;5047657;28;20033;-80
2023/12/16 11:03:07;;;;;;;0.32;0.32;;;;;;;;;;5051573;28;20032;-80
2023/12/16 11:05:42;;;;;;;0.20;0.20;;;;;;;;;;5049945;28;20420;-80
2023/12/16 11:08:08;;;;;;;0.40;0.40;;;;;;;;;;5049740;28;20022;-79
2023/12/16 11:10:35;;;;;;;0.10;0.10;;;;;;;;;;5051058;28;20052;-80
2023/12/16 11:13:02;;;;;;;0.40;0.40;;;;;;;;;;5051767;28;20028;-79
2023/12/16 11:15:30;;;;;;;1.27;1.10;;;;;;;;;;5048735;28;20040;-80
2023/12/16 11:18:05;;;;;;;0.80;0.43;;;;;;;;;;5050518;28;20388;-81
2023/12/16 11:20:44;;;;;;;0.30;0.30;;;;;;;;;;5050424;28;20036;-79
2023/12/16 11:23:10;;;;;;;0.35;0.35;;;;;;;;;;5051347;28;20025;-79
2023/12/16 11:25:36;;;;;;;0.30;0.30;;;;;;;;;;5051246;28;20028;-80
2023/12/16 11:28:03;;;;;;;0.20;0.20;;;;;;;;;;5047191;28;20025;-79
2023/12/16 11:30:29;;;;;;;0.50;0.50;;;;;;;;;;5050994;28;20033;-80
2023/12/16 11:32:57;;;;;;;0.40;0.40;;;;;;;;;;5050410;28;20037;-79
2023/12/16 11:35:44;;;;;;;0.38;0.35;;;;;;;;;;5050911;28;20115;-79
2023/12/16 11:38:30;;;;;;;0.30;0.30;;;;;;;;;;5048430;28;20443;-78
2023/12/16 11:40:58;;;;;;;0.25;0.25;;;;;;;;;;5051268;28;20039;-81
2023/12/16 11:43:46;;;;;;;0.60;0.60;;;;;;;;;;5050716;28;20036;-81
2023/12/16 11:46:49;;;;;;;0.13;0.13;;;;;;;;;;5051278;28;20041;-81
2023/12/16 11:49:15;;;;;;;0.35;0.35;;;;;;;;;;5049576;28;20691;-82
2023/12/16 11:51:41;;;;;;;0.15;0.15;;;;;;;;;;5051290;28;20385;-80
2023/12/16 11:54:08;;;;;;;0.30;0.30;;;;;;;;;;5050411;28;20111;-80
2023/12/16 11:56:39;;;;;;;0.30;0.30;;;;;;;;;;5049055;28;20029;-80
2023/12/16 11:59:05;;;;;;;0.30;0.30;;;;;;;;;;5051352;28;20036;-81
2023/12/16 12:01:32;;;;;;;1.00;0.82;;;;;;;;;;5051229;28;20035;-80
2023/12/16 12:03:58;;;;;;;0.40;0.40;;;;;;;;;;5050095;28;20108;-81
2023/12/16 12:06:25;;;;;;;0.40;0.40;;;;;;;;;;5048199;28;20382;-80
2023/12/16 12:08:51;;;;;;;0.20;0.20;;;;;;;;;;5081868;28;20032;-82
2023/12/16 12:11:20;;;;;;;0.30;0.30;;;;;;;;;;5049716;28;20020;-84
2023/12/16 12:13:47;;;;;;;0.40;0.40;;;;;;;;;;5050610;28;20025;-79
2023/12/16 12:16:14;;;;;;;0.35;0.35;;;;;;;;;;5048991;28;20677;-79
2023/12/16 12:18:42;;;;;;;0.20;0.20;;;;;;;;;;5051361;28;20032;-79
2023/12/16 12:21:09;;;;;;;0.60;0.60;;;;;;;;;;5052240;28;20415;-79
2023/12/16 12:23:38;;;;;;;0.28;0.28;;;;;;;;;;5049782;28;20548;-82
2023/12/16 12:26:04;;;;;;;0.28;0.28;;;;;;;;;;5051135;28;20028;-82
2023/12/16 12:28:30;;;;;;;0.70;0.70;;;;;;;;;;5049740;28;20049;-80
2023/12/16 12:31:09;;;;;;;0.40;0.40;;;;;;;;;;5050569;28;20052;-79
2023/12/16 12:33:38;;;;;;;0.20;0.20;;;;;;;;;;5048111;28;20108;-82
2023/12/16 12:36:09;;;;;;;0.57;0.57;;;;;;;;;;5050805;28;20029;-80
2023/12/16 12:38:36;;;;;;;1.75;0.75;;;;;;;;;;5048203;28;20041;-80
2023/12/16 12:41:06;;;;;;;0.77;0.77;;;;;;;;;;5049877;28;20028;-81
2023/12/16 12:43:46;;;;;;;0.50;0.50;;;;;;;;;;5048368;28;20029;-80
2023/12/16 12:46:31;;;;;;;0.30;0.30;;;;;;;;;;5048366;28;20055;-81
2023/12/16 12:48:58;;;;;;;0.52;0.40;;;;;;;;;;5050849;28;20101;-79
2023/12/16 12:51:29;;;;;;;0.65;0.65;;;;;;;;;;5048555;28;20048;-79
2023/12/16 12:53:59;;;;;;;0.30;0.30;;;;;;;;;;5049504;28;20416;-81
2023/12/16 12:56:24;;;;;;;0.50;0.50;;;;;;;;;;5047255;28;20028;-82
2023/12/16 12:58:50;;;;;;;1.95;1.02;;;;;;;;;;5080201;28;20036;-79
2023/12/16 13:01:15;;;;;;;0.30;0.30;;;;;;;;;;5047021;28;20029;-80
2023/12/16 13:03:42;;;;;;;0.30;0.30;;;;;;;;;;5045323;28;20087;-80
2023/12/16 13:06:08;;;;;;;0.32;0.32;;;;;;;;;;5045392;28;20063;-79
2023/12/16 13:08:33;;;;;;;1.30;0.73;;;;;;;;;;5043406;28;20072;-80
2023/12/16 13:10:59;;;;;;;1.60;0.93;;;;;;;;;;5049243;28;20094;-79
2023/12/16 13:13:24;;;;;;;0.80;0.73;;;;;;;;;;5048500;28;20021;-79
2023/12/16 13:15:50;;;;;;;6.43;1.60;;;;;;;;;;5046408;28;20039;-81
2023/12/16 13:18:15;;;;;;;0.75;0.75;;;;;;;;;;5046819;28;20052;-80
2023/12/16 13:20:43;;;;;;;0.73;0.73;;;;;;;;;;5047536;28;20036;-80
2023/12/16 13:23:10;;;;;;;0.63;0.45;;;;;;;;;;5046961;28;20110;-79
2023/12/16 13:25:35;;;;;;;0.60;0.60;;;;;;;;;;5048965;28;20020;-79
2023/12/16 13:28:03;;;;;;;0.85;0.80;;;;;;;;;;5048732;28;20074;-80
2023/12/16 13:30:28;;;;;;;0.70;0.70;;;;;;;;;;5049438;28;20025;-78
2023/12/16 13:32:54;;;;;;;0.57;0.57;;;;;;;;;;5049497;28;20032;-78
2023/12/16 13:35:19;;;;;;;0.30;0.30;;;;;;;;;;5047548;28;20021;-78
2023/12/16 13:37:46;;;;;;;1.02;1.00;;;;;;;;;;5049475;28;20029;-79
2023/12/16 13:40:12;;;;;;;0.70;0.70;;;;;;;;;;5046111;28;20043;-79
2023/12/16 13:42:38;;;;;;;1.33;1.05;;;;;;;;;;5049761;28;20032;-79
2023/12/16 13:45:04;;;;;;;0.50;0.50;;;;;;;;;;5048194;28;20033;-78
2023/12/16 13:47:29;;;;;;;1.48;1.38;;;;;;;;;;5048065;28;20020;-81
2023/12/16 13:49:55;;;;;;;1.25;0.98;;;;;;;;;;5049132;28;20511;-81
2023/12/16 13:52:20;;;;;;;0.85;0.85;;;;;;;;;;5049214;28;20020;-80
2023/12/16 13:54:46;;;;;;;1.65;1.48;;;;;;;;;;5052148;28;20422;-78
2023/12/16 13:57:13;;;;;;;3.55;2.15;;;;;;;;;;5053136;28;20040;-80
2023/12/16 13:59:39;;;;;;;2.88;2.63;;;;;;;;;;5050202;28;20032;-78
2023/12/16 14:02:04;;;;;;;1.23;1.13;;;;;;;;;;5053047;28;20071;-78
2023/12/16 14:04:30;;;;;;;7.63;3.35;;;;;;;;;;5052951;28;20431;-79
2023/12/16 14:06:55;;;;;;;3.30;3.10;;;;;;;;;;5052759;28;20028;-79
2023/12/16 14:09:21;;;;;;;1.65;1.55;;;;;;;;;;5052653;28;20051;-78
2023/12/16 14:11:46;;;;;;;1.33;1.23;;;;;;;;;;5053556;28;20045;-78
2023/12/16 14:14:12;;;;;;;1.67;1.10;;;;;;;;;;5052060;28;20477;-79
2023/12/16 14:16:38;;;;;;;3.58;1.85;;;;;;;;;;5050191;28;20033;-79
2023/12/16 14:19:04;;;;;;;3.08;1.35;;;;;;;;;;5052812;28;20040;-80
2023/12/16 14:21:30;;;;;;;4.28;3.13;;;;;;;;;;5051495;28;20051;-80
2023/12/16 14:23:55;;;;;;;1.73;1.63;;;;;;;;;;5053251;28;20029;-79
2023/12/16 14:26:20;;;;;;;0.95;0.90;;;;;;;;;;5052905;28;20044;-80
2023/12/16 14:28:46;;;;;;;3.40;3.10;;;;;;;;;;5051879;28;20025;-79
2023/12/16 14:31:12;;;;;;;11.93;8.80;;;;;;;;;;5051675;28;20043;-78
2023/12/16 14:33:37;;;;;;;44.97;21.77;;;;;;;;;;5051771;28;20033;-79
2023/12/16 14:36:03;;;;;;;8.02;5.53;;;;;;;;;;5053144;28;20416;-79
2023/12/16 14:38:28;;;;;;;3.92;2.65;;;;;;;;;;5053013;28;20037;-79
2023/12/16 14:40:53;;;;;;;1.90;1.80;;;;;;;;;;5052829;28;20366;-78
2023/12/16 14:43:19;;;;;;;7.38;3.20;;;;;;;;;;5053263;28;20074;-78
2023/12/16 14:45:44;;;;;;;2.15;1.95;;;;;;;;;;5051647;28;20025;-79
2023/12/16 14:48:10;;;;;;;6.00;3.10;;;;;;;;;;5049929;28;20032;-80
2023/12/16 14:50:35;;;;;;;6.72;3.15;;;;;;;;;;5050325;28;20029;-78
2023/12/16 14:53:01;;;;;;;0.30;0.30;;;;;;;;;;5050731;28;20035;-78
2023/12/16 14:55:27;;;;;;;1.73;0.90;;;;;;;;;;5052023;28;20036;-77
2023/12/16 14:57:52;;;;;;;2.28;1.95;;;;;;;;;;5050786;28;20052;-78